Accueil
METAR-TAF:

METAR-TAF

Aéroports :

Nouakchott, Mauritanie

Aéroport international de Nouakchott-Oumtounsy

latitude: 18-18-36N, longitude: 015-58-11W, altitude: 3 m

Observation

Le bulletin a été fait il y a 43 minutes, à 14:30 UTC
Vent 10 kt de ouest/nord-ouest, variant entre ouest et nord/nord-ouest
Température 33°C
Humidité 59%
Pression 1013 hPa
Visibilité: 8000 m

METAR: GQNO 191430Z 29010KT 260V330 8000 NSC 33/24 Q1013 NOSIG

Heure: 15:13 (15:13 UTC)

Prévision

Le bulletin a été fait il y a 4 heures et 13 minutes, à 11:00 UTC
Prévision valable du 19 à 12 UTC au 20 à 18 UTC
Vent 12 kt de nord/nord-ouest
Visibilité: 6000 m
Probabilité 30% :
Temporairement
du 20 à 02 UTC au 20 à 08 UTC
Nuages fragmentés à une hauteur de 1000 ft

TAF: GQNO 191100Z 1912/2018 34012KT 6000 NSC PROB30 TEMPO 2002/2008 BKN010

Observations et prévisions météorologiques de plus de 4000 aéroports (messages METAR et TAF).

Les stations disponibles sont représentées par des disques jaunes et rouges sur la carte.

Passer la souris dessus pour voir le nom de la station.

Cliquer dessus pour voir les observations et prévisions météorologiques.

Pour changer de carte: cliquez sur les boutons verts avec une croix noire pour zoomer, sur le bouton vert avec un tiret pour effectuer un zoom arrière, ou sur les flèches vertes pour les cartes adjacentes.


METAR-TAF: